Time;durP1;ratioP1;P1;durP2;ratioP2;P2;SDS_P1;SDS_P2;PMS_P1;PMS_P2;Temp;Humidity;BMP_temperature;BMP_pressure;BME280_temperature;BME280_humidity;BME280_pressure;Samples;Min_cycle;Max_cycle;Signal;HPM_P1;HPM_P2
2020/12/12 00:00:12;;;;;;;37.37;21.10;;;;;;;11.34;85.74;98976.06;5014351;28;20038;-61
2020/12/12 00:02:37;;;;;;;34.72;19.92;;;;;;;11.32;86.36;98987.03;5013635;28;20552;-61
2020/12/12 00:05:03;;;;;;;52.27;26.90;;;;;;;11.71;83.44;98972.81;4996984;28;20042;-61
2020/12/12 00:07:28;;;;;;;32.97;19.53;;;;;;;11.58;84.81;98976.69;5013512;28;20112;-60
2020/12/12 00:09:54;;;;;;;36.53;20.33;;;;;;;11.69;83.51;98974.94;5012282;28;20325;-60
2020/12/12 00:12:19;;;;;;;37.63;20.73;;;;;;;11.28;86.23;98975.19;5013043;28;20061;-60
2020/12/12 00:14:45;;;;;;;38.53;20.57;;;;;;;11.51;85.28;98978.69;5012331;28;20041;-59
2020/12/12 00:17:10;;;;;;;36.63;21.00;;;;;;;11.89;82.40;98970.91;5014243;28;20108;-60
2020/12/12 00:19:36;;;;;;;34.77;19.13;;;;;;;11.78;83.14;98975.31;5013516;28;20050;-59
2020/12/12 00:22:02;;;;;;;38.53;21.03;;;;;;;11.78;83.45;98972.66;5013661;28;20291;-61
2020/12/12 00:24:28;;;;;;;38.03;20.45;;;;;;;11.42;85.39;98973.00;5014323;28;20034;-60
2020/12/12 00:26:58;;;;;;;36.37;21.13;;;;;;;11.67;84.11;98976.22;5013573;28;20226;-60
2020/12/12 00:29:24;;;;;;;38.63;21.35;;;;;;;11.33;86.41;98977.13;5013061;28;20519;-61
2020/12/12 00:31:58;;;;;;;36.23;20.53;;;;;;;11.36;86.27;98971.28;5013353;28;20034;-60
2020/12/12 00:34:24;;;;;;;39.75;21.77;;;;;;;11.70;84.77;98971.19;5012876;28;20046;-61
2020/12/12 00:36:50;;;;;;;41.10;20.55;;;;;;;11.57;85.58;98975.06;4995379;28;20386;-61
2020/12/12 00:39:20;;;;;;;40.05;21.95;;;;;;;11.60;84.71;98977.22;4995529;28;20111;-60
2020/12/12 00:41:46;;;;;;;38.60;21.10;;;;;;;11.74;83.79;98976.84;5011666;28;20056;-60
2020/12/12 00:44:12;;;;;;;36.15;18.25;;;;;;;11.76;83.79;98983.59;4996014;28;20037;-60
2020/12/12 00:46:38;;;;;;;39.35;21.23;;;;;;;11.70;84.01;98986.44;5012679;28;20040;-58
2020/12/12 00:49:05;;;;;;;38.90;21.20;;;;;;;11.54;85.36;98985.44;5013838;28;20045;-59
2020/12/12 00:51:32;;;;;;;44.22;22.77;;;;;;;11.76;83.52;98983.59;5013576;28;20556;-60
2020/12/12 00:53:57;;;;;;;41.40;20.70;;;;;;;11.21;88.61;98992.47;5012612;28;20041;-61
2020/12/12 00:56:23;;;;;;;35.15;20.02;;;;;;;11.47;86.71;98985.63;4996056;28;20049;-61
2020/12/12 00:58:50;;;;;;;45.17;21.25;;;;;;;11.47;86.40;98989.13;5011715;28;20092;-60
2020/12/12 01:01:16;;;;;;;45.65;22.92;;;;;;;11.68;84.91;98999.28;4996023;28;20125;-61
2020/12/12 01:03:42;;;;;;;40.80;23.10;;;;;;;11.44;87.32;98999.50;5011454;28;20041;-60
2020/12/12 01:06:15;;;;;;;44.45;23.42;;;;;;;11.16;88.90;98980.63;5012056;28;20092;-61
2020/12/12 01:08:42;;;;;;;40.95;22.48;;;;;;;11.55;87.03;99001.28;5011443;28;20042;-60
2020/12/12 01:11:10;;;;;;;63.25;23.58;;;;;;;11.60;85.58;98992.47;5011986;28;20092;-60
2020/12/12 01:13:35;;;;;;;39.38;21.10;;;;;;;11.62;86.81;98999.22;5013375;28;20041;-57
2020/12/12 01:16:09;;;;;;;43.92;23.40;;;;;;;11.42;87.19;99001.59;5012498;28;20256;-62
2020/12/12 01:18:35;;;;;;;42.33;22.33;;;;;;;11.70;85.95;99003.34;5013171;28;20049;-60
2020/12/12 01:21:01;;;;;;;41.55;23.08;;;;;;;11.68;85.97;99008.13;5012186;28;20080;-60
2020/12/12 01:23:27;;;;;;;45.15;24.13;;;;;;;11.50;86.94;99006.53;5011891;28;20060;-60
2020/12/12 01:25:52;;;;;;;42.55;22.92;;;;;;;11.62;86.62;99006.41;5012318;28;20038;-60
2020/12/12 01:28:20;;;;;;;47.97;23.53;;;;;;;11.56;86.61;99002.88;5012853;28;20490;-59
2020/12/12 01:30:47;;;;;;;41.92;22.40;;;;;;;11.65;86.45;99005.13;5012191;28;20034;-59
2020/12/12 01:33:13;;;;;;;45.42;22.70;;;;;;;11.65;86.96;99011.31;5011504;28;20030;-60
2020/12/12 01:35:39;;;;;;;50.00;24.50;;;;;;;11.65;87.00;99011.31;5012664;28;20474;-57
2020/12/12 01:38:04;;;;;;;46.47;23.70;;;;;;;11.65;86.95;99015.84;5012556;28;20109;-60
2020/12/12 01:40:30;;;;;;;44.73;23.97;;;;;;;11.60;86.74;99013.91;5012620;28;20042;-59
2020/12/12 01:42:55;;;;;;;43.57;23.50;;;;;;;11.86;84.40;99009.69;5012012;28;20112;-61
2020/12/12 01:45:21;;;;;;;44.50;23.57;;;;;;;11.81;84.56;99008.81;5011546;28;20036;-60
2020/12/12 01:47:46;;;;;;;44.93;23.27;;;;;;;12.01;83.67;99019.03;5011777;28;20045;-60
2020/12/12 01:50:13;;;;;;;42.90;21.10;;;;;;;12.13;82.21;99022.34;5011926;28;20362;-59
2020/12/12 01:52:39;;;;;;;36.88;21.02;;;;;;;12.06;82.63;99027.09;5012281;28;20038;-59
2020/12/12 01:55:05;;;;;;;38.85;22.33;;;;;;;12.07;83.05;99025.22;5012136;28;20073;-60
2020/12/12 01:57:30;;;;;;;40.70;22.33;;;;;;;11.71;85.44;99037.09;4995041;28;20081;-60
2020/12/12 01:59:56;;;;;;;43.23;21.67;;;;;;;11.99;83.42;99029.94;5011694;28;20033;-60
2020/12/12 02:02:22;;;;;;;39.07;22.00;;;;;;;12.00;83.57;99026.19;5012074;28;20044;-61
2020/12/12 02:04:52;;;;;;;52.25;20.60;;;;;;;12.01;83.24;99035.88;5011476;28;20461;-61
2020/12/12 02:07:19;;;;;;;35.70;19.83;;;;;;;12.08;83.15;99037.56;4994675;28;20482;-64
2020/12/12 02:09:46;;;;;;;41.97;21.50;;;;;;;12.09;82.79;99034.66;5010127;28;20042;-58
2020/12/12 02:12:15;;;;;;;36.30;20.20;;;;;;;12.18;82.06;99046.53;5011012;28;20038;-60
2020/12/12 02:14:42;;;;;;;33.58;19.40;;;;;;;12.21;82.54;99039.06;5011887;28;20283;-57
2020/12/12 02:17:09;;;;;;;38.00;20.42;;;;;;;12.27;81.53;99038.88;5010480;28;20147;-60
2020/12/12 02:19:35;;;;;;;37.42;19.15;;;;;;;12.20;81.66;99035.56;4978167;28;20465;-61
2020/12/12 02:22:03;;;;;;;37.47;21.40;;;;;;;12.14;82.62;99036.59;5010305;28;20044;-60
2020/12/12 02:24:29;;;;;;;33.13;19.17;;;;;;;11.96;84.29;99037.66;5011880;28;20073;-60
2020/12/12 02:26:57;;;;;;;36.42;20.30;;;;;;;12.19;82.59;99044.69;5010000;28;20116;-60
2020/12/12 02:29:26;;;;;;;36.13;19.55;;;;;;;12.25;82.38;99042.88;5010739;28;20038;-60
2020/12/12 02:31:52;;;;;;;44.17;21.30;;;;;;;12.09;83.07;99041.84;5010885;28;20470;-59
2020/12/12 02:34:17;;;;;;;36.30;19.90;;;;;;;12.32;81.40;99040.81;5010453;28;20030;-61
2020/12/12 02:36:43;;;;;;;35.50;19.43;;;;;;;12.26;81.65;99047.16;5011194;28;20038;-59
2020/12/12 02:39:14;;;;;;;35.10;20.15;;;;;;;12.23;82.21;99048.47;5010794;28;20472;-60
2020/12/12 02:41:40;;;;;;;34.40;19.45;;;;;;;12.24;82.89;99047.41;5011823;28;20038;-60
2020/12/12 02:44:05;;;;;;;35.75;20.08;;;;;;;12.16;83.28;99039.81;5010877;28;20529;-60
2020/12/12 02:46:31;;;;;;;38.47;20.40;;;;;;;12.19;82.27;99042.00;5011547;28;20169;-60
2020/12/12 02:48:58;;;;;;;39.72;20.90;;;;;;;12.23;82.34;99045.00;5010675;28;20282;-61
2020/12/12 02:51:23;;;;;;;;;;;;;;;12.36;81.71;99052.63;5010608;28;20049;-61
2020/12/12 02:53:49;;;;;;;35.83;18.67;;;;;;;12.31;82.06;99055.25;5009531;28;19917;-60
2020/12/12 02:56:18;;;;;;;35.80;19.27;;;;;;;12.40;81.56;99048.38;5010467;28;20065;-61
2020/12/12 02:58:44;;;;;;;41.65;21.27;;;;;;;12.32;81.90;99055.00;5011344;28;20042;-60
2020/12/12 03:01:10;;;;;;;39.22;21.42;;;;;;;11.80;85.38;99056.22;5009352;28;20050;-59
2020/12/12 03:03:36;;;;;;;35.45;20.08;;;;;;;12.18;83.40;99062.63;5010376;28;20041;-60
2020/12/12 03:06:02;;;;;;;29.27;16.67;;;;;;;12.26;82.64;99069.41;5010586;28;20589;-59
2020/12/12 03:08:28;;;;;;;40.45;21.80;;;;;;;12.21;83.00;99064.00;5011315;28;20419;-61
2020/12/12 03:10:54;;;;;;;37.53;21.33;;;;;;;12.11;83.74;99050.44;5010792;28;20399;-60
2020/12/12 03:13:20;;;;;;;41.05;21.55;;;;;;;12.25;83.46;99061.63;5009795;28;20124;-60
2020/12/12 03:15:46;;;;;;;40.28;21.70;;;;;;;12.44;81.25;99062.09;5011284;28;20543;-61
2020/12/12 03:18:11;;;;;;;43.40;23.45;;;;;;;12.18;83.20;99057.25;5010731;28;20112;-60
2020/12/12 03:20:37;;;;;;;37.27;21.40;;;;;;;12.24;83.21;99060.00;5010350;28;20330;-61
2020/12/12 03:23:03;;;;;;;37.70;20.45;;;;;;;12.33;82.31;99061.19;5009407;28;20037;-60
2020/12/12 03:25:29;;;;;;;40.95;22.27;;;;;;;12.28;83.21;99063.81;5011251;28;20045;-61
2020/12/12 03:27:55;;;;;;;39.35;21.23;;;;;;;12.11;84.26;99067.34;5010574;28;20105;-61
2020/12/12 03:30:21;;;;;;;36.80;20.90;;;;;;;12.14;84.22;99071.41;4993752;28;20052;-60
2020/12/12 03:32:47;;;;;;;41.03;21.55;;;;;;;12.13;84.40;99067.13;5009648;28;20030;-60
2020/12/12 03:35:12;;;;;;;38.60;21.65;;;;;;;12.19;83.56;99072.28;5009141;28;20042;-60
2020/12/12 03:37:38;;;;;;;38.70;21.23;;;;;;;12.27;83.42;99071.03;5011104;28;20088;-60
2020/12/12 03:40:04;;;;;;;41.30;21.90;;;;;;;12.27;83.01;99075.59;5010339;28;20053;-59
2020/12/12 03:42:29;;;;;;;41.75;21.42;;;;;;;12.27;83.24;99070.22;5009795;28;20048;-59
2020/12/12 03:44:55;;;;;;;42.63;21.67;;;;;;;12.15;84.51;99073.84;5010863;28;20034;-60
2020/12/12 03:47:20;;;;;;;34.90;20.27;;;;;;;12.29;83.34;99076.16;5011252;28;20038;-60
2020/12/12 03:49:46;;;;;;;36.93;20.17;;;;;;;12.22;83.90;99079.00;5011224;28;20052;-58
2020/12/12 03:52:11;;;;;;;43.10;20.30;;;;;;;12.12;84.61;99068.97;5010252;28;20593;-60
2020/12/12 03:54:37;;;;;;;41.63;21.53;;;;;;;11.99;86.18;99093.41;5010575;28;20470;-60
2020/12/12 03:57:03;;;;;;;40.30;21.80;;;;;;;11.92;86.91;99080.22;5010405;28;20038;-60
2020/12/12 03:59:29;;;;;;;41.83;20.40;;;;;;;12.13;85.19;99086.66;5009742;28;20042;-59
2020/12/12 04:01:55;;;;;;;42.03;22.97;;;;;;;12.06;86.07;99088.72;5009341;28;20101;-55
2020/12/12 04:04:20;;;;;;;46.40;21.25;;;;;;;11.89;86.71;99081.50;5011063;28;20037;-60
2020/12/12 04:06:46;;;;;;;45.97;22.30;;;;;;;12.30;84.47;99091.16;5010787;28;20038;-60
2020/12/12 04:09:11;;;;;;;43.87;21.93;;;;;;;12.25;84.18;99097.28;5009817;28;20037;-59
2020/12/12 04:11:37;;;;;;;41.63;20.97;;;;;;;12.42;83.95;99097.19;5010799;28;20022;-59
2020/12/12 04:14:03;;;;;;;40.57;22.77;;;;;;;12.26;84.34;99090.84;4994904;28;20034;-60
2020/12/12 04:16:28;;;;;;;39.30;20.80;;;;;;;12.15;85.94;99111.34;5014612;28;20131;-60
2020/12/12 04:18:54;;;;;;;45.17;21.47;;;;;;;12.53;83.20;99095.44;5012514;28;20068;-57
2020/12/12 04:21:21;;;;;;;47.05;21.60;;;;;;;12.54;82.69;99098.94;5012766;28;20100;-60
2020/12/12 04:23:46;;;;;;;45.53;23.45;;;;;;;12.50;82.54;99097.84;5012790;28;20046;-60
2020/12/12 04:26:12;;;;;;;42.47;20.43;;;;;;;12.62;81.99;99104.69;5013174;28;20033;-61
2020/12/12 04:28:41;;;;;;;49.10;23.13;;;;;;;12.64;82.10;99099.03;5014073;28;20523;-60
2020/12/12 04:31:08;;;;;;;40.70;21.55;;;;;;;12.60;81.53;99095.25;5013170;28;20068;-60
2020/12/12 04:33:34;;;;;;;42.28;22.20;;;;;;;12.62;81.92;99110.03;5013818;28;20120;-60
2020/12/12 04:36:00;;;;;;;48.10;23.55;;;;;;;12.56;82.43;99104.88;5013233;28;20041;-60
2020/12/12 04:38:27;;;;;;;48.88;22.00;;;;;;;12.72;81.18;99111.19;5014017;28;20537;-61
2020/12/12 04:40:53;;;;;;;43.80;21.80;;;;;;;12.71;80.76;99104.22;5013960;28;20069;-60
2020/12/12 04:43:19;;;;;;;44.13;22.10;;;;;;;12.40;83.55;99111.94;5011811;28;20188;-61
2020/12/12 04:45:47;;;;;;;43.30;21.33;;;;;;;12.29;84.35;99111.78;5013824;28;20045;-61
2020/12/12 04:48:13;;;;;;;59.58;24.05;;;;;;;12.51;82.64;99107.50;5013125;28;20486;-59
2020/12/12 04:50:39;;;;;;;47.90;23.65;;;;;;;12.46;83.04;99121.66;5013648;28;20065;-60
2020/12/12 04:53:16;;;;;;;53.45;23.35;;;;;;;12.46;82.91;99117.09;5011602;28;20041;-61
2020/12/12 04:55:43;;;;;;;;;;;;;;;12.50;82.64;99127.31;5014073;28;20100;-60
2020/12/12 04:58:30;;;;;;;48.45;23.35;;;;;;;12.57;82.65;99128.75;5012532;28;19913;-61
2020/12/12 05:00:57;;;;;;;42.15;21.92;;;;;;;12.56;82.52;99127.13;5012361;28;20072;-54
2020/12/12 05:03:24;;;;;;;;;;;;;;;12.51;83.29;99123.59;5012185;28;20088;-60
2020/12/12 05:05:50;;;;;;;51.35;21.70;;;;;;;12.45;83.85;99136.13;5012154;28;20013;-60
2020/12/12 05:08:16;;;;;;;47.95;22.15;;;;;;;12.55;83.19;99124.69;5012801;28;20066;-59
2020/12/12 05:10:51;;;;;;;54.85;22.48;;;;;;;12.51;83.53;99128.94;4995788;28;20045;-59
2020/12/12 05:13:19;;;;;;;38.35;21.17;;;;;;;12.54;83.26;99133.81;5010912;28;20125;-59
2020/12/12 05:15:46;;;;;;;55.20;22.85;;;;;;;12.64;82.47;99133.91;5013269;28;20381;-59
2020/12/12 05:18:12;;;;;;;45.25;20.52;;;;;;;12.53;83.64;99142.91;5010913;28;20042;-59
2020/12/12 05:20:38;;;;;;;40.17;21.13;;;;;;;12.54;83.18;99142.66;5011922;28;20362;-60
2020/12/12 05:23:14;;;;;;;40.80;21.33;;;;;;;12.69;82.05;99143.91;5012365;28;20457;-59
2020/12/12 05:25:41;;;;;;;40.15;21.60;;;;;;;12.58;82.84;99140.28;5013558;28;20488;-60
2020/12/12 05:28:08;;;;;;;45.95;21.00;;;;;;;12.32;84.19;99139.97;4994744;28;20037;-59
2020/12/12 05:30:34;;;;;;;;;;;;;;;12.28;85.64;99146.91;5012057;28;20508;-60
2020/12/12 05:33:00;;;;;;;46.40;20.55;;;;;;;12.39;84.53;99150.53;5011270;28;20377;-58
2020/12/12 05:35:25;;;;;;;42.72;19.75;;;;;;;12.46;84.46;99156.50;5011411;28;20083;-61
2020/12/12 05:37:52;;;;;;;57.70;21.43;;;;;;;12.57;83.75;99157.44;5013023;28;20042;-59
2020/12/12 05:40:18;;;;;;;53.42;21.40;;;;;;;12.60;83.39;99155.06;5010718;28;20048;-60
2020/12/12 05:42:46;;;;;;;60.60;21.15;;;;;;;12.50;84.31;99159.50;5011235;28;20034;-61
2020/12/12 05:45:12;;;;;;;49.03;21.83;;;;;;;12.64;82.95;99158.03;5010579;28;20378;-59
2020/12/12 05:47:37;;;;;;;56.17;22.13;;;;;;;12.52;84.44;99165.44;5012505;28;20056;-60
2020/12/12 05:50:03;;;;;;;46.03;21.90;;;;;;;12.57;84.10;99170.84;5012306;28;20336;-58
2020/12/12 05:52:29;;;;;;;38.33;17.42;;;;;;;12.62;83.90;99173.59;5012818;28;20034;-61
2020/12/12 05:54:55;;;;;;;58.70;21.27;;;;;;;12.51;84.43;99166.47;5012663;28;20030;-61
2020/12/12 05:57:21;;;;;;;53.70;22.00;;;;;;;12.67;83.69;99180.88;5011683;28;20244;-61
2020/12/12 05:59:48;;;;;;;50.75;20.40;;;;;;;12.61;84.07;99182.69;5011370;28;20060;-60
2020/12/12 06:02:16;;;;;;;51.55;20.52;;;;;;;12.56;84.59;99177.25;5011338;28;20061;-60
2020/12/12 06:04:50;;;;;;;44.90;21.55;;;;;;;12.59;84.04;99171.41;5012380;28;20038;-60
2020/12/12 06:07:30;;;;;;;79.47;22.00;;;;;;;12.50;85.32;99186.31;5011324;28;20116;-60
2020/12/12 06:10:02;;;;;;;67.05;20.35;;;;;;;12.50;85.41;99184.44;5012465;28;20074;-60
2020/12/12 06:12:29;;;;;;;52.42;20.85;;;;;;;12.45;86.13;99187.84;5011484;28;20036;-60
2020/12/12 06:14:56;;;;;;;;;;;;;;;12.60;85.36;99191.78;5011489;28;20422;-60
2020/12/12 06:17:35;;;;;;;56.65;21.65;;;;;;;12.23;87.42;99179.78;4993995;28;20368;-61
2020/12/12 06:20:03;;;;;;;53.80;20.75;;;;;;;12.47;86.46;99196.47;5012814;28;20057;-60
2020/12/12 06:22:30;;;;;;;75.30;21.98;;;;;;;12.13;89.57;99199.22;5011861;28;20073;-61
2020/12/12 06:25:01;;;;;;;81.32;22.58;;;;;;;12.24;88.80;99202.84;5012563;28;20272;-59
2020/12/12 06:27:36;;;;;;;117.57;26.42;;;;;;;11.91;91.40;99202.63;5011148;28;20030;-60
2020/12/12 06:30:06;;;;;;;173.70;26.90;;;;;;;11.53;95.75;99212.16;5011206;28;20042;-59
2020/12/12 06:32:32;;;;;;;97.22;25.33;;;;;;;11.91;92.88;99207.19;5011569;28;20045;-60
2020/12/12 06:34:57;;;;;;;106.60;24.08;;;;;;;11.95;93.65;99212.84;5011640;28;20397;-61
2020/12/12 06:37:33;;;;;;;96.43;22.17;;;;;;;12.00;92.19;99211.06;5011067;28;20057;-60
2020/12/12 06:40:00;;;;;;;122.30;25.77;;;;;;;12.07;91.49;99232.34;5012864;28;20394;-60
2020/12/12 06:42:37;;;;;;;66.13;21.90;;;;;;;12.58;87.85;99231.47;5012093;28;20038;-60
2020/12/12 06:45:15;;;;;;;105.30;23.95;;;;;;;12.02;92.39;99240.31;5015283;28;20041;-60
2020/12/12 06:47:42;;;;;;;109.13;24.27;;;;;;;11.99;93.00;99238.09;5014116;28;20049;-61
2020/12/12 06:50:14;;;;;;;112.85;26.67;;;;;;;11.90;94.42;99241.19;5011285;28;20117;-57
2020/12/12 06:52:41;;;;;;;100.88;23.90;;;;;;;11.90;95.12;99233.13;4994273;28;20104;-61
2020/12/12 06:55:11;;;;;;;81.32;24.02;;;;;;;12.29;91.21;99239.66;5011671;28;20030;-56
2020/12/12 06:57:45;;;;;;;69.80;24.48;;;;;;;12.26;91.71;99240.94;5010759;28;20123;-61
2020/12/12 07:00:32;;;;;;;124.13;28.83;;;;;;;12.33;90.84;99252.28;5010598;28;20185;-61
2020/12/12 07:02:58;;;;;;;107.53;25.25;;;;;;;12.29;91.16;99258.41;5011433;28;20116;-60
2020/12/12 07:05:26;;;;;;;78.97;24.52;;;;;;;12.16;92.92;99254.19;5008019;28;20478;-61
2020/12/12 07:07:51;;;;;;;80.95;24.65;;;;;;;12.10;93.45;99247.94;4992589;28;20347;-60
2020/12/12 07:10:17;;;;;;;104.75;24.50;;;;;;;12.33;92.21;99260.34;4991029;28;20034;-61
2020/12/12 07:12:43;;;;;;;89.32;25.00;;;;;;;12.02;94.54;99257.19;4990487;28;20042;-61
2020/12/12 07:15:09;;;;;;;96.38;23.60;;;;;;;12.45;90.87;99268.28;4992796;28;20033;-56
2020/12/12 07:17:35;;;;;;;91.45;24.42;;;;;;;12.37;92.00;99265.22;5009791;28;20041;-61
2020/12/12 07:20:00;;;;;;;117.72;26.85;;;;;;;12.18;93.98;99268.97;5009978;28;20060;-61
2020/12/12 07:22:30;;;;;;;114.00;24.90;;;;;;;12.22;93.26;99271.16;5009180;28;20046;-61
2020/12/12 07:24:57;;;;;;;89.43;25.83;;;;;;;12.56;90.70;99279.97;5011250;28;20478;-60
2020/12/12 07:27:24;;;;;;;91.65;26.88;;;;;;;12.70;90.15;99283.13;5010421;28;20061;-60
2020/12/12 07:29:49;;;;;;;121.05;25.27;;;;;;;12.49;91.37;99282.00;4993689;28;20133;-61
2020/12/12 07:32:16;;;;;;;81.47;24.88;;;;;;;12.68;90.83;99287.91;5009186;28;20038;-60
2020/12/12 07:34:41;;;;;;;75.93;25.40;;;;;;;12.57;92.27;99283.47;5010661;28;20053;-60
2020/12/12 07:37:09;;;;;;;106.63;28.70;;;;;;;13.00;87.57;99289.94;5010692;28;20118;-60
2020/12/12 07:39:44;;;;;;;85.70;23.98;;;;;;;12.85;88.95;99295.09;5007541;28;20044;-59
2020/12/12 07:42:11;;;;;;;79.30;25.52;;;;;;;13.02;88.39;99295.88;5010613;28;20171;-58
2020/12/12 07:44:39;;;;;;;87.25;25.13;;;;;;;12.79;90.76;99301.47;5011131;28;20600;-60
2020/12/12 07:47:11;;;;;;;87.95;24.73;;;;;;;13.13;88.34;99301.34;5027499;28;20053;-60
2020/12/12 07:49:37;;;;;;;97.50;27.02;;;;;;;12.95;89.73;99311.34;5014821;28;20469;-61
2020/12/12 07:52:11;;;;;;;93.38;27.65;;;;;;;13.00;89.35;99314.09;5013622;28;20037;-60
2020/12/12 07:54:40;;;;;;;89.10;26.38;;;;;;;13.00;89.09;99324.81;5014156;28;20030;-60
2020/12/12 07:57:12;;;;;;;96.70;25.38;;;;;;;13.01;89.83;99322.94;5014480;28;20037;-61
2020/12/12 07:59:37;;;;;;;90.70;25.52;;;;;;;13.18;88.34;99328.28;5014010;28;20037;-60
2020/12/12 08:02:05;;;;;;;85.38;24.10;;;;;;;13.15;88.35;99323.41;5014322;28;20378;-62
2020/12/12 08:04:31;;;;;;;90.60;24.23;;;;;;;13.00;89.77;99332.88;5013679;28;20045;-61
2020/12/12 08:06:57;;;;;;;102.68;25.75;;;;;;;12.86;92.22;99334.28;4996742;28;20044;-61
2020/12/12 08:09:24;;;;;;;80.50;25.13;;;;;;;13.03;89.96;99335.06;5012314;28;20037;-60
2020/12/12 08:12:00;;;;;;;112.65;24.73;;;;;;;13.10;89.96;99345.63;5013283;28;20073;-60
2020/12/12 08:14:32;;;;;;;130.70;25.50;;;;;;;12.95;91.76;99348.09;5012148;28;20049;-61
2020/12/12 08:16:59;;;;;;;108.78;26.10;;;;;;;13.23;89.12;99354.34;5012770;28;20038;-61
2020/12/12 08:19:28;;;;;;;104.45;24.65;;;;;;;13.04;91.71;99349.31;5012230;28;20045;-60
2020/12/12 08:22:13;;;;;;;126.10;26.15;;;;;;;13.38;88.39;99357.22;5013919;28;20033;-61
2020/12/12 08:24:39;;;;;;;102.35;25.42;;;;;;;13.16;89.15;99359.91;5013315;28;20049;-59
2020/12/12 08:27:21;;;;;;;120.53;24.63;;;;;;;13.39;88.99;99364.22;5013471;28;20042;-60
2020/12/12 08:29:52;;;;;;;101.13;27.27;;;;;;;13.57;86.88;99370.38;5014355;28;20034;-60
2020/12/12 08:32:39;;;;;;;99.82;25.00;;;;;;;13.82;85.17;99377.88;5013219;28;20124;-56
2020/12/12 08:35:25;;;;;;;87.72;24.30;;;;;;;13.87;84.60;99380.63;5014267;28;20038;-60
2020/12/12 08:37:57;;;;;;;110.03;25.85;;;;;;;13.73;85.95;99379.41;5012079;28;20079;-60
2020/12/12 08:40:43;;;;;;;115.10;27.13;;;;;;;13.78;84.90;99382.13;5016641;28;20442;-61
2020/12/12 08:43:11;;;;;;;83.80;23.77;;;;;;;13.82;85.40;99394.00;5014550;28;20050;-61
2020/12/12 08:45:38;;;;;;;87.68;26.52;;;;;;;13.59;86.59;99385.16;5011704;28;20068;-61
2020/12/12 08:48:10;;;;;;;124.90;25.02;;;;;;;13.55;88.67;99394.78;5013975;28;20087;-61
2020/12/12 08:50:57;;;;;;;96.30;26.10;;;;;;;13.79;86.70;99402.56;5012451;28;20264;-61
2020/12/12 08:53:36;;;;;;;108.65;27.42;;;;;;;13.56;90.11;99407.13;5010872;28;20126;-59
2020/12/12 08:56:15;;;;;;;166.20;29.52;;;;;;;13.37;91.07;99397.75;5009670;28;20042;-60
2020/12/12 08:58:47;;;;;;;127.35;28.20;;;;;;;13.57;89.85;99406.06;4983977;28;20275;-60
2020/12/12 09:01:21;;;;;;;114.35;27.92;;;;;;;13.61;89.84;99404.53;4994114;28;20046;-60
2020/12/12 09:04:01;;;;;;;144.80;28.98;;;;;;;13.95;87.11;99410.78;4992934;28;20038;-61
2020/12/12 09:06:30;;;;;;;139.32;28.42;;;;;;;13.83;88.49;99405.56;4992057;28;20070;-61
2020/12/12 09:09:28;;;;;;;102.13;26.75;;;;;;;13.57;91.59;99410.66;4995490;28;20042;-60
2020/12/12 09:11:57;;;;;;;91.57;25.95;;;;;;;13.38;94.23;99418.16;4992659;28;20057;-61
2020/12/12 09:14:24;;;;;;;108.07;25.17;;;;;;;13.46;93.95;99423.16;4993687;28;20465;-59
2020/12/12 09:16:55;;;;;;;86.60;25.55;;;;;;;13.74;90.71;99418.63;4994865;28;20026;-61
2020/12/12 09:19:22;;;;;;;100.85;26.40;;;;;;;14.26;86.61;99432.59;4992634;28;20050;-56
2020/12/12 09:21:48;;;;;;;95.25;29.70;;;;;;;14.00;89.26;99441.25;4993689;28;20042;-61
2020/12/12 09:24:15;;;;;;;110.13;28.83;;;;;;;13.89;90.42;99443.00;4994389;28;20046;-61
2020/12/12 09:26:41;;;;;;;85.93;26.70;;;;;;;14.22;87.85;99450.31;4993194;28;20046;-60
2020/12/12 09:29:07;;;;;;;90.78;26.55;;;;;;;14.32;86.53;99451.22;4993242;28;20050;-60
2020/12/12 09:31:32;;;;;;;102.20;29.57;;;;;;;14.15;87.78;99451.34;4993485;28;20034;-60
2020/12/12 09:33:58;;;;;;;109.65;27.83;;;;;;;13.90;90.64;99449.16;4993505;28;20461;-61
2020/12/12 09:36:24;;;;;;;92.18;26.88;;;;;;;14.08;89.41;99461.47;4992372;28;20349;-59
2020/12/12 09:38:50;;;;;;;97.73;25.50;;;;;;;13.71;94.88;99462.91;4991992;28;20078;-60
2020/12/12 09:41:15;;;;;;;109.20;26.80;;;;;;;13.97;93.05;99465.94;4993624;28;20042;-60
2020/12/12 09:43:41;;;;;;;97.68;26.48;;;;;;;14.14;90.13;99473.91;4992413;28;20387;-61
2020/12/12 09:46:07;;;;;;;79.73;26.97;;;;;;;14.25;89.90;99472.13;4993291;28;20041;-61
2020/12/12 09:48:35;;;;;;;117.68;31.05;;;;;;;14.29;88.38;99462.50;4992608;28;20260;-62
2020/12/12 09:51:00;;;;;;;111.45;26.75;;;;;;;14.27;89.50;99480.75;5011488;28;20096;-61
2020/12/12 09:53:26;;;;;;;114.00;26.37;;;;;;;14.16;91.63;99481.69;5010431;28;20440;-60
2020/12/12 09:55:53;;;;;;;129.30;28.48;;;;;;;14.37;88.96;99481.91;5013772;28;20666;-61
2020/12/12 09:58:20;;;;;;;134.18;27.63;;;;;;;14.11;92.86;99477.09;4994807;28;20476;-61
2020/12/12 10:00:45;;;;;;;;;;;;;;;14.14;92.36;99489.22;5011971;28;20049;-65
2020/12/12 10:03:11;;;;;;;171.13;31.37;;;;;;;14.34;90.57;99486.75;5027578;28;20313;-61
2020/12/12 10:05:37;;;;;;;131.70;28.38;;;;;;;14.31;91.23;99498.00;4993794;28;20390;-61
2020/12/12 10:08:04;;;;;;;145.97;28.20;;;;;;;14.44;90.50;99499.47;5010300;28;20049;-60
2020/12/12 10:10:31;;;;;;;143.30;29.10;;;;;;;14.58;88.19;99493.69;5010259;28;20293;-60
2020/12/12 10:12:56;;;;;;;;;;;;;;;14.42;90.95;99504.31;5011148;28;20049;-60
2020/12/12 10:15:22;;;;;;;165.50;29.53;;;;;;;14.55;89.63;99502.28;5012211;28;19917;-61
2020/12/12 10:17:48;;;;;;;193.02;30.40;;;;;;;14.14;94.52;99511.53;5009619;28;20050;-60
2020/12/12 10:20:15;;;;;;;200.35;32.30;;;;;;;14.39;92.17;99510.19;5010387;28;20137;-61
2020/12/12 10:22:41;;;;;;;;;;;;;;;14.32;93.36;99509.59;5025184;28;20143;-60
2020/12/12 10:25:07;;;;;;;198.57;30.57;;;;;;;14.47;91.54;99512.41;5026300;28;20388;-59
2020/12/12 10:27:34;;;;;;;168.95;32.33;;;;;;;14.61;90.40;99512.81;5024953;28;20187;-60
2020/12/12 10:29:59;;;;;;;;;;;;;;;14.63;89.74;99518.75;5010476;28;20081;-60
2020/12/12 10:32:25;;;;;;;218.40;31.70;;;;;;;14.61;90.39;99525.47;5010819;28;19982;-56
2020/12/12 10:34:50;;;;;;;195.90;34.23;;;;;;;14.84;88.64;99510.09;5010990;28;20045;-60
2020/12/12 10:37:16;;;;;;;194.40;33.83;;;;;;;14.55;90.67;99505.78;5010687;28;21130;-60
2020/12/12 10:40:10;;;;;;;229.23;34.20;;;;;;;14.74;89.58;99521.59;5010828;28;20053;-61
2020/12/12 10:42:27;;;;;;;248.90;35.58;;;;;;;14.62;91.25;99527.09;5010501;28;20085;-58
2020/12/12 10:44:53;;;;;;;338.23;37.40;;;;;;;14.55;92.49;99527.28;5011397;28;20042;-60
2020/12/12 10:47:20;;;;;;;236.77;33.23;;;;;;;14.91;88.70;99537.59;5011228;28;20437;-61
2020/12/12 10:49:45;;;;;;;226.02;37.60;;;;;;;14.93;88.71;99534.66;5010340;28;20391;-61
2020/12/12 10:52:11;;;;;;;290.07;37.73;;;;;;;14.86;89.52;99540.25;5010106;28;20469;-61
2020/12/12 10:54:37;;;;;;;269.63;37.03;;;;;;;14.69;90.22;99532.28;5010120;28;20111;-60
2020/12/12 10:57:03;;;;;;;215.27;35.63;;;;;;;14.51;94.00;99538.81;5011595;28;20038;-59
2020/12/12 10:59:29;;;;;;;231.57;37.37;;;;;;;14.40;94.85;99548.63;5011519;28;20049;-54
2020/12/12 11:01:55;;;;;;;238.77;36.90;;;;;;;14.46;94.39;99542.28;5011354;28;20038;-60
2020/12/12 11:04:24;;;;;;;236.57;40.22;;;;;;;14.41;95.32;99545.72;5011548;28;20282;-60
2020/12/12 11:06:51;;;;;;;236.25;40.70;;;;;;;14.63;93.67;99553.72;5009033;28;20103;-60
2020/12/12 11:09:17;;;;;;;;;;;;;;;14.33;96.16;99552.34;5011297;28;20033;-60
2020/12/12 11:11:42;;;;;;;255.67;40.77;;;;;;;14.63;93.89;99551.03;5009201;28;20024;-60
2020/12/12 11:14:09;;;;;;;265.60;42.67;;;;;;;14.36;96.81;99540.28;5009982;28;20125;-60
2020/12/12 11:16:35;;;;;;;307.00;44.20;;;;;;;14.59;95.20;99547.22;5009816;28;20048;-60
2020/12/12 11:19:02;;;;;;;298.70;45.65;;;;;;;14.46;96.90;99553.03;4977116;28;20057;-60